sensor_id;sensor_type;location;lat;lon;timestamp;P1;durP1;ratioP1;P2;durP2;ratioP2
10761;SDS011;5433;50.862;4.320;2022-12-18T00:01:36;33.35;;;17.42;;
10761;SDS011;5433;50.862;4.320;2022-12-18T00:04:06;32.53;;;17.52;;
10761;SDS011;5433;50.862;4.320;2022-12-18T00:06:33;31.17;;;15.85;;
10761;SDS011;5433;50.862;4.320;2022-12-18T00:08:59;32.47;;;17.52;;
10761;SDS011;5433;50.862;4.320;2022-12-18T00:11:26;35.58;;;17.60;;
10761;SDS011;5433;50.862;4.320;2022-12-18T00:13:53;33.67;;;17.70;;
10761;SDS011;5433;50.862;4.320;2022-12-18T00:16:20;33.55;;;17.65;;
10761;SDS011;5433;50.862;4.320;2022-12-18T00:18:47;34.60;;;17.67;;
10761;SDS011;5433;50.862;4.320;2022-12-18T00:21:13;33.10;;;17.17;;
10761;SDS011;5433;50.862;4.320;2022-12-18T00:23:40;34.33;;;16.67;;
10761;SDS011;5433;50.862;4.320;2022-12-18T00:26:11;33.25;;;16.45;;
10761;SDS011;5433;50.862;4.320;2022-12-18T00:28:37;29.63;;;16.35;;
10761;SDS011;5433;50.862;4.320;2022-12-18T00:31:04;32.92;;;17.40;;
10761;SDS011;5433;50.862;4.320;2022-12-18T00:33:31;30.98;;;16.77;;
10761;SDS011;5433;50.862;4.320;2022-12-18T00:36:00;31.33;;;16.67;;
10761;SDS011;5433;50.862;4.320;2022-12-18T00:38:27;33.85;;;17.52;;
10761;SDS011;5433;50.862;4.320;2022-12-18T00:40:53;32.75;;;17.77;;
10761;SDS011;5433;50.862;4.320;2022-12-18T00:43:19;34.92;;;18.27;;
10761;SDS011;5433;50.862;4.320;2022-12-18T00:45:45;32.55;;;17.05;;
10761;SDS011;5433;50.862;4.320;2022-12-18T00:48:11;32.25;;;17.02;;
10761;SDS011;5433;50.862;4.320;2022-12-18T00:50:37;32.40;;;16.85;;
10761;SDS011;5433;50.862;4.320;2022-12-18T00:53:03;32.95;;;18.00;;
10761;SDS011;5433;50.862;4.320;2022-12-18T00:55:29;33.42;;;17.45;;
10761;SDS011;5433;50.862;4.320;2022-12-18T00:57:55;31.83;;;17.13;;
10761;SDS011;5433;50.862;4.320;2022-12-18T01:00:21;30.05;;;16.00;;
10761;SDS011;5433;50.862;4.320;2022-12-18T01:02:47;33.50;;;16.17;;
10761;SDS011;5433;50.862;4.320;2022-12-18T01:05:14;27.42;;;15.63;;
10761;SDS011;5433;50.862;4.320;2022-12-18T01:07:40;30.80;;;15.65;;
10761;SDS011;5433;50.862;4.320;2022-12-18T01:10:06;29.65;;;16.25;;
10761;SDS011;5433;50.862;4.320;2022-12-18T01:12:32;31.92;;;15.93;;
10761;SDS011;5433;50.862;4.320;2022-12-18T01:14:59;23.48;;;13.38;;
10761;SDS011;5433;50.862;4.320;2022-12-18T01:17:24;20.08;;;11.63;;
10761;SDS011;5433;50.862;4.320;2022-12-18T01:19:51;23.92;;;13.00;;
10761;SDS011;5433;50.862;4.320;2022-12-18T01:22:17;26.75;;;14.07;;
10761;SDS011;5433;50.862;4.320;2022-12-18T01:24:43;22.70;;;13.40;;
10761;SDS011;5433;50.862;4.320;2022-12-18T01:27:09;25.58;;;13.82;;
10761;SDS011;5433;50.862;4.320;2022-12-18T01:29:35;27.92;;;13.98;;
10761;SDS011;5433;50.862;4.320;2022-12-18T01:32:01;27.95;;;13.73;;
10761;SDS011;5433;50.862;4.320;2022-12-18T01:34:27;25.25;;;13.60;;
10761;SDS011;5433;50.862;4.320;2022-12-18T01:36:53;22.77;;;13.02;;
10761;SDS011;5433;50.862;4.320;2022-12-18T01:39:19;23.45;;;13.10;;
10761;SDS011;5433;50.862;4.320;2022-12-18T01:41:45;26.10;;;14.00;;
10761;SDS011;5433;50.862;4.320;2022-12-18T01:47:56;20.60;;;12.05;;
10761;SDS011;5433;50.862;4.320;2022-12-18T01:50:06;21.38;;;11.63;;
10761;SDS011;5433;50.862;4.320;2022-12-18T01:52:33;22.38;;;12.23;;
10761;SDS011;5433;50.862;4.320;2022-12-18T01:54:59;22.50;;;12.57;;
10761;SDS011;5433;50.862;4.320;2022-12-18T01:57:26;23.77;;;13.05;;
10761;SDS011;5433;50.862;4.320;2022-12-18T01:59:53;22.70;;;11.77;;
10761;SDS011;5433;50.862;4.320;2022-12-18T02:02:20;23.77;;;12.23;;
10761;SDS011;5433;50.862;4.320;2022-12-18T02:04:46;23.50;;;12.75;;
10761;SDS011;5433;50.862;4.320;2022-12-18T02:12:23;23.83;;;12.32;;
10761;SDS011;5433;50.862;4.320;2022-12-18T02:14:55;23.15;;;12.45;;
10761;SDS011;5433;50.862;4.320;2022-12-18T02:17:23;25.02;;;12.40;;
10761;SDS011;5433;50.862;4.320;2022-12-18T02:22:21;21.95;;;11.88;;
10761;SDS011;5433;50.862;4.320;2022-12-18T02:24:56;22.70;;;11.93;;
10761;SDS011;5433;50.862;4.320;2022-12-18T02:27:25;20.52;;;11.45;;
10761;SDS011;5433;50.862;4.320;2022-12-18T02:29:52;24.40;;;12.23;;
10761;SDS011;5433;50.862;4.320;2022-12-18T02:32:27;23.25;;;11.93;;
10761;SDS011;5433;50.862;4.320;2022-12-18T02:34:55;22.15;;;11.00;;
10761;SDS011;5433;50.862;4.320;2022-12-18T02:37:21;22.08;;;11.32;;
10761;SDS011;5433;50.862;4.320;2022-12-18T02:39:48;20.80;;;11.07;;
10761;SDS011;5433;50.862;4.320;2022-12-18T02:42:15;21.65;;;11.68;;
10761;SDS011;5433;50.862;4.320;2022-12-18T02:44:46;22.65;;;11.52;;
10761;SDS011;5433;50.862;4.320;2022-12-18T02:47:12;22.42;;;10.80;;
10761;SDS011;5433;50.862;4.320;2022-12-18T03:00:11;19.48;;;9.55;;
10761;SDS011;5433;50.862;4.320;2022-12-18T03:02:43;22.75;;;10.68;;
10761;SDS011;5433;50.862;4.320;2022-12-18T03:05:16;21.42;;;11.13;;
10761;SDS011;5433;50.862;4.320;2022-12-18T03:07:45;18.35;;;10.40;;
10761;SDS011;5433;50.862;4.320;2022-12-18T03:10:14;22.63;;;10.70;;
10761;SDS011;5433;50.862;4.320;2022-12-18T03:12:43;19.90;;;11.07;;
10761;SDS011;5433;50.862;4.320;2022-12-18T03:15:11;22.13;;;11.60;;
10761;SDS011;5433;50.862;4.320;2022-12-18T03:17:39;20.75;;;10.43;;
10761;SDS011;5433;50.862;4.320;2022-12-18T03:20:08;19.27;;;10.60;;
10761;SDS011;5433;50.862;4.320;2022-12-18T03:22:36;20.60;;;11.07;;
10761;SDS011;5433;50.862;4.320;2022-12-18T03:25:04;20.67;;;11.05;;
10761;SDS011;5433;50.862;4.320;2022-12-18T03:27:31;21.75;;;11.02;;
10761;SDS011;5433;50.862;4.320;2022-12-18T03:30:08;99.60;;;37.65;;
10761;SDS011;5433;50.862;4.320;2022-12-18T03:32:42;22.20;;;11.23;;
10761;SDS011;5433;50.862;4.320;2022-12-18T03:35:10;20.55;;;11.30;;
10761;SDS011;5433;50.862;4.320;2022-12-18T03:37:38;20.05;;;10.70;;
10761;SDS011;5433;50.862;4.320;2022-12-18T03:40:05;39.63;;;20.95;;
10761;SDS011;5433;50.862;4.320;2022-12-18T03:47:38;20.20;;;10.75;;
10761;SDS011;5433;50.862;4.320;2022-12-18T03:55:09;19.80;;;9.52;;
10761;SDS011;5433;50.862;4.320;2022-12-18T03:57:35;21.95;;;10.43;;
10761;SDS011;5433;50.862;4.320;2022-12-18T04:00:13;19.35;;;10.10;;
10761;SDS011;5433;50.862;4.320;2022-12-18T04:02:42;20.02;;;10.15;;
10761;SDS011;5433;50.862;4.320;2022-12-18T04:05:08;17.95;;;10.00;;
10761;SDS011;5433;50.862;4.320;2022-12-18T04:07:36;20.23;;;10.02;;
10761;SDS011;5433;50.862;4.320;2022-12-18T04:10:03;17.17;;;9.52;;
10761;SDS011;5433;50.862;4.320;2022-12-18T04:12:29;17.27;;;9.52;;
10761;SDS011;5433;50.862;4.320;2022-12-18T04:14:55;18.92;;;9.48;;
10761;SDS011;5433;50.862;4.320;2022-12-18T04:17:21;17.92;;;10.13;;
10761;SDS011;5433;50.862;4.320;2022-12-18T04:19:47;25.38;;;12.55;;
10761;SDS011;5433;50.862;4.320;2022-12-18T04:22:13;18.80;;;10.00;;
10761;SDS011;5433;50.862;4.320;2022-12-18T04:24:39;17.85;;;9.80;;
10761;SDS011;5433;50.862;4.320;2022-12-18T04:27:05;17.65;;;9.25;;
10761;SDS011;5433;50.862;4.320;2022-12-18T04:29:31;18.08;;;10.07;;
10761;SDS011;5433;50.862;4.320;2022-12-18T04:31:58;16.58;;;9.38;;
10761;SDS011;5433;50.862;4.320;2022-12-18T04:34:24;17.10;;;8.98;;
10761;SDS011;5433;50.862;4.320;2022-12-18T04:36:50;14.85;;;8.50;;
10761;SDS011;5433;50.862;4.320;2022-12-18T04:39:16;16.17;;;9.05;;
10761;SDS011;5433;50.862;4.320;2022-12-18T04:41:42;17.02;;;10.65;;
10761;SDS011;5433;50.862;4.320;2022-12-18T04:44:08;17.23;;;9.73;;
10761;SDS011;5433;50.862;4.320;2022-12-18T04:46:34;19.15;;;9.23;;
10761;SDS011;5433;50.862;4.320;2022-12-18T04:49:00;15.52;;;8.50;;
10761;SDS011;5433;50.862;4.320;2022-12-18T04:51:26;16.73;;;8.93;;
10761;SDS011;5433;50.862;4.320;2022-12-18T04:53:52;18.08;;;9.07;;
10761;SDS011;5433;50.862;4.320;2022-12-18T04:56:19;15.20;;;8.90;;
10761;SDS011;5433;50.862;4.320;2022-12-18T04:58:45;18.30;;;9.55;;
10761;SDS011;5433;50.862;4.320;2022-12-18T05:01:12;15.05;;;8.77;;
10761;SDS011;5433;50.862;4.320;2022-12-18T05:03:38;18.38;;;8.85;;
10761;SDS011;5433;50.862;4.320;2022-12-18T05:06:04;15.05;;;8.40;;
10761;SDS011;5433;50.862;4.320;2022-12-18T05:08:31;14.50;;;7.85;;
10761;SDS011;5433;50.862;4.320;2022-12-18T05:11:04;17.40;;;8.07;;
10761;SDS011;5433;50.862;4.320;2022-12-18T05:13:31;16.13;;;8.57;;
10761;SDS011;5433;50.862;4.320;2022-12-18T05:15:57;11.20;;;7.35;;
10761;SDS011;5433;50.862;4.320;2022-12-18T05:18:23;16.02;;;7.65;;
10761;SDS011;5433;50.862;4.320;2022-12-18T05:20:50;12.48;;;7.22;;
10761;SDS011;5433;50.862;4.320;2022-12-18T05:23:16;15.65;;;7.82;;
10761;SDS011;5433;50.862;4.320;2022-12-18T05:25:46;13.10;;;7.47;;
10761;SDS011;5433;50.862;4.320;2022-12-18T05:28:13;13.60;;;8.38;;
10761;SDS011;5433;50.862;4.320;2022-12-18T05:30:39;14.38;;;8.05;;
10761;SDS011;5433;50.862;4.320;2022-12-18T05:33:07;17.50;;;7.43;;
10761;SDS011;5433;50.862;4.320;2022-12-18T05:35:33;13.95;;;7.80;;
10761;SDS011;5433;50.862;4.320;2022-12-18T05:37:59;12.93;;;7.68;;
10761;SDS011;5433;50.862;4.320;2022-12-18T05:40:25;16.75;;;8.43;;
10761;SDS011;5433;50.862;4.320;2022-12-18T05:42:51;13.40;;;7.40;;
10761;SDS011;5433;50.862;4.320;2022-12-18T05:45:17;15.18;;;8.65;;
10761;SDS011;5433;50.862;4.320;2022-12-18T05:47:45;14.35;;;8.07;;
10761;SDS011;5433;50.862;4.320;2022-12-18T05:50:11;14.15;;;7.88;;
10761;SDS011;5433;50.862;4.320;2022-12-18T05:52:37;12.32;;;6.97;;
10761;SDS011;5433;50.862;4.320;2022-12-18T05:55:03;13.27;;;8.10;;
10761;SDS011;5433;50.862;4.320;2022-12-18T05:57:29;13.32;;;7.65;;
10761;SDS011;5433;50.862;4.320;2022-12-18T05:59:55;13.52;;;7.53;;
10761;SDS011;5433;50.862;4.320;2022-12-18T06:02:21;12.57;;;7.10;;
10761;SDS011;5433;50.862;4.320;2022-12-18T06:04:47;13.98;;;8.10;;
10761;SDS011;5433;50.862;4.320;2022-12-18T06:07:13;11.80;;;7.30;;
10761;SDS011;5433;50.862;4.320;2022-12-18T06:09:39;13.75;;;7.57;;
10761;SDS011;5433;50.862;4.320;2022-12-18T06:12:05;18.85;;;7.68;;
10761;SDS011;5433;50.862;4.320;2022-12-18T06:14:32;14.13;;;7.75;;
10761;SDS011;5433;50.862;4.320;2022-12-18T06:16:58;14.70;;;8.27;;
10761;SDS011;5433;50.862;4.320;2022-12-18T06:19:24;13.85;;;8.13;;
10761;SDS011;5433;50.862;4.320;2022-12-18T06:21:50;13.45;;;7.88;;
10761;SDS011;5433;50.862;4.320;2022-12-18T06:24:16;13.27;;;7.38;;
10761;SDS011;5433;50.862;4.320;2022-12-18T06:26:42;14.95;;;7.25;;
10761;SDS011;5433;50.862;4.320;2022-12-18T06:29:08;14.93;;;7.95;;
10761;SDS011;5433;50.862;4.320;2022-12-18T06:31:34;12.73;;;7.30;;
10761;SDS011;5433;50.862;4.320;2022-12-18T06:34:03;14.32;;;7.32;;
10761;SDS011;5433;50.862;4.320;2022-12-18T06:36:30;15.02;;;7.60;;
10761;SDS011;5433;50.862;4.320;2022-12-18T06:38:56;13.65;;;7.97;;
10761;SDS011;5433;50.862;4.320;2022-12-18T06:41:22;14.00;;;7.80;;
10761;SDS011;5433;50.862;4.320;2022-12-18T06:43:48;12.55;;;7.05;;
10761;SDS011;5433;50.862;4.320;2022-12-18T06:46:14;14.35;;;7.15;;
10761;SDS011;5433;50.862;4.320;2022-12-18T06:48:40;13.52;;;7.53;;
10761;SDS011;5433;50.862;4.320;2022-12-18T06:51:06;14.15;;;7.25;;
10761;SDS011;5433;50.862;4.320;2022-12-18T06:53:32;12.95;;;6.95;;
10761;SDS011;5433;50.862;4.320;2022-12-18T06:56:02;14.02;;;7.32;;
10761;SDS011;5433;50.862;4.320;2022-12-18T06:58:29;13.57;;;7.18;;
10761;SDS011;5433;50.862;4.320;2022-12-18T07:01:05;13.55;;;7.70;;
10761;SDS011;5433;50.862;4.320;2022-12-18T07:03:31;14.90;;;7.47;;
10761;SDS011;5433;50.862;4.320;2022-12-18T07:05:57;13.35;;;7.47;;
10761;SDS011;5433;50.862;4.320;2022-12-18T07:08:23;12.45;;;6.93;;
10761;SDS011;5433;50.862;4.320;2022-12-18T07:10:50;12.07;;;6.80;;
10761;SDS011;5433;50.862;4.320;2022-12-18T07:13:16;12.40;;;7.05;;
10761;SDS011;5433;50.862;4.320;2022-12-18T07:15:43;10.20;;;6.13;;
10761;SDS011;5433;50.862;4.320;2022-12-18T07:18:09;11.20;;;5.60;;
10761;SDS011;5433;50.862;4.320;2022-12-18T07:20:35;8.93;;;5.88;;
10761;SDS011;5433;50.862;4.320;2022-12-18T07:23:02;9.52;;;5.82;;
10761;SDS011;5433;50.862;4.320;2022-12-18T07:25:37;11.27;;;6.35;;
10761;SDS011;5433;50.862;4.320;2022-12-18T07:28:03;10.82;;;5.90;;
10761;SDS011;5433;50.862;4.320;2022-12-18T07:30:29;11.88;;;6.68;;
10761;SDS011;5433;50.862;4.320;2022-12-18T07:32:55;12.82;;;6.85;;
10761;SDS011;5433;50.862;4.320;2022-12-18T07:35:22;11.93;;;6.93;;
10761;SDS011;5433;50.862;4.320;2022-12-18T07:37:47;10.95;;;7.15;;
10761;SDS011;5433;50.862;4.320;2022-12-18T07:40:13;11.18;;;6.53;;
10761;SDS011;5433;50.862;4.320;2022-12-18T07:42:40;12.18;;;6.88;;
10761;SDS011;5433;50.862;4.320;2022-12-18T07:45:06;10.88;;;6.30;;
10761;SDS011;5433;50.862;4.320;2022-12-18T07:47:34;12.98;;;7.53;;
10761;SDS011;5433;50.862;4.320;2022-12-18T07:50:01;8.90;;;6.13;;
10761;SDS011;5433;50.862;4.320;2022-12-18T07:52:27;10.23;;;6.80;;
10761;SDS011;5433;50.862;4.320;2022-12-18T07:54:53;11.70;;;6.38;;
10761;SDS011;5433;50.862;4.320;2022-12-18T07:57:29;11.02;;;6.28;;
10761;SDS011;5433;50.862;4.320;2022-12-18T07:59:55;11.88;;;6.53;;
10761;SDS011;5433;50.862;4.320;2022-12-18T08:02:21;11.50;;;6.43;;
10761;SDS011;5433;50.862;4.320;2022-12-18T08:04:47;10.45;;;6.35;;
10761;SDS011;5433;50.862;4.320;2022-12-18T08:07:13;12.40;;;6.13;;
10761;SDS011;5433;50.862;4.320;2022-12-18T08:09:39;12.52;;;6.50;;
10761;SDS011;5433;50.862;4.320;2022-12-18T08:12:05;12.35;;;6.60;;
10761;SDS011;5433;50.862;4.320;2022-12-18T08:14:31;11.73;;;6.68;;
10761;SDS011;5433;50.862;4.320;2022-12-18T08:16:57;12.10;;;6.63;;
10761;SDS011;5433;50.862;4.320;2022-12-18T08:19:23;14.38;;;8.10;;
10761;SDS011;5433;50.862;4.320;2022-12-18T08:21:49;12.70;;;6.95;;
10761;SDS011;5433;50.862;4.320;2022-12-18T08:24:16;12.18;;;6.55;;
10761;SDS011;5433;50.862;4.320;2022-12-18T08:26:42;10.50;;;6.10;;
10761;SDS011;5433;50.862;4.320;2022-12-18T08:29:08;11.02;;;6.25;;
10761;SDS011;5433;50.862;4.320;2022-12-18T08:31:34;8.60;;;5.63;;
10761;SDS011;5433;50.862;4.320;2022-12-18T08:34:00;8.40;;;5.32;;
10761;SDS011;5433;50.862;4.320;2022-12-18T08:36:26;8.85;;;5.40;;
10761;SDS011;5433;50.862;4.320;2022-12-18T08:38:52;9.30;;;5.57;;
10761;SDS011;5433;50.862;4.320;2022-12-18T08:41:19;10.40;;;6.57;;
10761;SDS011;5433;50.862;4.320;2022-12-18T08:43:45;8.43;;;5.47;;
10761;SDS011;5433;50.862;4.320;2022-12-18T08:46:37;9.02;;;5.70;;
10761;SDS011;5433;50.862;4.320;2022-12-18T08:49:04;13.25;;;5.80;;
10761;SDS011;5433;50.862;4.320;2022-12-18T08:51:30;10.57;;;5.63;;
10761;SDS011;5433;50.862;4.320;2022-12-18T08:53:56;8.52;;;5.43;;
10761;SDS011;5433;50.862;4.320;2022-12-18T08:56:22;8.57;;;5.28;;
10761;SDS011;5433;50.862;4.320;2022-12-18T08:58:50;10.05;;;6.03;;
10761;SDS011;5433;50.862;4.320;2022-12-18T09:01:17;11.25;;;6.28;;
10761;SDS011;5433;50.862;4.320;2022-12-18T09:03:43;11.35;;;6.68;;
10761;SDS011;5433;50.862;4.320;2022-12-18T09:06:09;12.10;;;7.13;;
10761;SDS011;5433;50.862;4.320;2022-12-18T09:08:39;11.10;;;6.90;;
10761;SDS011;5433;50.862;4.320;2022-12-18T09:11:09;10.90;;;6.10;;
10761;SDS011;5433;50.862;4.320;2022-12-18T09:13:37;10.40;;;6.85;;
10761;SDS011;5433;50.862;4.320;2022-12-18T09:16:03;10.27;;;6.45;;
10761;SDS011;5433;50.862;4.320;2022-12-18T09:18:29;10.38;;;6.15;;
10761;SDS011;5433;50.862;4.320;2022-12-18T09:20:55;8.85;;;5.80;;
10761;SDS011;5433;50.862;4.320;2022-12-18T09:23:21;10.38;;;6.07;;
10761;SDS011;5433;50.862;4.320;2022-12-18T09:25:47;10.02;;;6.40;;
10761;SDS011;5433;50.862;4.320;2022-12-18T09:28:15;10.48;;;6.40;;
10761;SDS011;5433;50.862;4.320;2022-12-18T09:30:43;9.75;;;5.88;;
10761;SDS011;5433;50.862;4.320;2022-12-18T09:33:10;10.00;;;6.10;;
10761;SDS011;5433;50.862;4.320;2022-12-18T09:35:37;10.45;;;6.40;;
10761;SDS011;5433;50.862;4.320;2022-12-18T09:38:03;10.77;;;6.45;;
10761;SDS011;5433;50.862;4.320;2022-12-18T09:40:33;10.63;;;6.20;;
10761;SDS011;5433;50.862;4.320;2022-12-18T09:43:05;9.68;;;6.65;;
10761;SDS011;5433;50.862;4.320;2022-12-18T09:45:42;11.82;;;7.05;;
10761;SDS011;5433;50.862;4.320;2022-12-18T09:48:19;13.40;;;6.93;;
10761;SDS011;5433;50.862;4.320;2022-12-18T09:50:47;10.18;;;6.63;;
10761;SDS011;5433;50.862;4.320;2022-12-18T09:53:20;11.23;;;6.70;;
10761;SDS011;5433;50.862;4.320;2022-12-18T09:55:47;11.15;;;6.63;;
10761;SDS011;5433;50.862;4.320;2022-12-18T09:58:20;10.60;;;7.05;;
10761;SDS011;5433;50.862;4.320;2022-12-18T10:00:51;13.30;;;7.03;;
10761;SDS011;5433;50.862;4.320;2022-12-18T10:03:17;9.43;;;6.45;;
10761;SDS011;5433;50.862;4.320;2022-12-18T10:05:47;10.20;;;6.32;;
10761;SDS011;5433;50.862;4.320;2022-12-18T10:08:18;10.63;;;6.72;;
10761;SDS011;5433;50.862;4.320;2022-12-18T10:10:50;12.02;;;6.93;;
10761;SDS011;5433;50.862;4.320;2022-12-18T10:21:16;11.38;;;7.50;;
10761;SDS011;5433;50.862;4.320;2022-12-18T10:23:49;11.68;;;7.35;;
10761;SDS011;5433;50.862;4.320;2022-12-18T10:26:19;10.38;;;7.13;;
10761;SDS011;5433;50.862;4.320;2022-12-18T10:28:45;10.88;;;7.60;;
10761;SDS011;5433;50.862;4.320;2022-12-18T10:31:19;12.63;;;7.88;;
10761;SDS011;5433;50.862;4.320;2022-12-18T10:33:45;12.52;;;7.50;;
10761;SDS011;5433;50.862;4.320;2022-12-18T10:36:11;12.60;;;7.60;;
10761;SDS011;5433;50.862;4.320;2022-12-18T10:38:37;11.52;;;7.20;;
10761;SDS011;5433;50.862;4.320;2022-12-18T10:41:05;10.65;;;7.03;;
10761;SDS011;5433;50.862;4.320;2022-12-18T10:43:34;12.05;;;7.60;;
10761;SDS011;5433;50.862;4.320;2022-12-18T10:48:27;10.38;;;6.95;;
10761;SDS011;5433;50.862;4.320;2022-12-18T10:50:53;11.85;;;7.30;;
10761;SDS011;5433;50.862;4.320;2022-12-18T10:53:21;10.52;;;7.15;;
10761;SDS011;5433;50.862;4.320;2022-12-18T10:55:48;11.55;;;7.63;;
10761;SDS011;5433;50.862;4.320;2022-12-18T10:58:36;11.50;;;7.40;;
10761;SDS011;5433;50.862;4.320;2022-12-18T11:01:10;10.77;;;7.07;;
10761;SDS011;5433;50.862;4.320;2022-12-18T11:03:40;12.48;;;7.78;;
10761;SDS011;5433;50.862;4.320;2022-12-18T11:06:08;13.57;;;7.88;;
10761;SDS011;5433;50.862;4.320;2022-12-18T11:08:35;11.77;;;7.80;;
10761;SDS011;5433;50.862;4.320;2022-12-18T11:11:01;13.32;;;7.78;;
10761;SDS011;5433;50.862;4.320;2022-12-18T11:13:28;11.30;;;8.10;;
10761;SDS011;5433;50.862;4.320;2022-12-18T11:15:54;12.63;;;8.07;;
10761;SDS011;5433;50.862;4.320;2022-12-18T11:18:33;13.13;;;8.50;;
10761;SDS011;5433;50.862;4.320;2022-12-18T11:21:06;14.80;;;7.97;;
10761;SDS011;5433;50.862;4.320;2022-12-18T11:23:33;13.80;;;8.13;;
10761;SDS011;5433;50.862;4.320;2022-12-18T11:26:00;13.52;;;7.75;;
10761;SDS011;5433;50.862;4.320;2022-12-18T11:31:16;11.57;;;8.02;;
10761;SDS011;5433;50.862;4.320;2022-12-18T11:33:50;12.38;;;7.82;;
10761;SDS011;5433;50.862;4.320;2022-12-18T11:38:49;12.23;;;7.80;;
10761;SDS011;5433;50.862;4.320;2022-12-18T11:43:48;11.25;;;6.65;;
10761;SDS011;5433;50.862;4.320;2022-12-18T11:46:23;12.80;;;8.32;;
10761;SDS011;5433;50.862;4.320;2022-12-18T11:48:52;14.82;;;7.75;;
10761;SDS011;5433;50.862;4.320;2022-12-18T11:51:29;12.45;;;7.70;;
10761;SDS011;5433;50.862;4.320;2022-12-18T11:53:59;12.18;;;8.20;;
10761;SDS011;5433;50.862;4.320;2022-12-18T11:56:35;14.63;;;9.13;;
10761;SDS011;5433;50.862;4.320;2022-12-18T11:59:06;13.32;;;8.55;;
10761;SDS011;5433;50.862;4.320;2022-12-18T12:09:01;14.43;;;8.68;;
10761;SDS011;5433;50.862;4.320;2022-12-18T12:16:37;15.52;;;8.57;;
10761;SDS011;5433;50.862;4.320;2022-12-18T12:21:40;14.00;;;8.48;;
10761;SDS011;5433;50.862;4.320;2022-12-18T12:39:14;12.75;;;8.35;;
10761;SDS011;5433;50.862;4.320;2022-12-18T12:41:52;13.02;;;8.13;;
10761;SDS011;5433;50.862;4.320;2022-12-18T12:47:45;12.88;;;8.27;;
10761;SDS011;5433;50.862;4.320;2022-12-18T12:50:13;13.57;;;8.40;;
10761;SDS011;5433;50.862;4.320;2022-12-18T12:52:40;13.35;;;8.68;;
10761;SDS011;5433;50.862;4.320;2022-12-18T12:55:12;15.35;;;9.20;;
10761;SDS011;5433;50.862;4.320;2022-12-18T12:57:40;14.95;;;8.85;;
10761;SDS011;5433;50.862;4.320;2022-12-18T14:11:19;21.33;;;12.25;;
10761;SDS011;5433;50.862;4.320;2022-12-18T14:13:46;24.20;;;12.43;;
10761;SDS011;5433;50.862;4.320;2022-12-18T14:16:13;21.52;;;12.80;;
10761;SDS011;5433;50.862;4.320;2022-12-18T14:21:20;22.95;;;12.68;;
10761;SDS011;5433;50.862;4.320;2022-12-18T14:23:46;21.50;;;12.20;;
10761;SDS011;5433;50.862;4.320;2022-12-18T14:26:29;21.15;;;10.68;;
10761;SDS011;5433;50.862;4.320;2022-12-18T14:28:56;26.55;;;14.15;;
10761;SDS011;5433;50.862;4.320;2022-12-18T14:31:23;20.70;;;12.13;;
10761;SDS011;5433;50.862;4.320;2022-12-18T14:33:50;22.65;;;12.30;;
10761;SDS011;5433;50.862;4.320;2022-12-18T14:36:17;21.23;;;12.27;;
10761;SDS011;5433;50.862;4.320;2022-12-18T14:38:47;23.13;;;13.27;;
10761;SDS011;5433;50.862;4.320;2022-12-18T14:41:14;20.63;;;12.43;;
10761;SDS011;5433;50.862;4.320;2022-12-18T14:43:48;20.27;;;11.90;;
10761;SDS011;5433;50.862;4.320;2022-12-18T14:46:26;19.55;;;12.13;;
10761;SDS011;5433;50.862;4.320;2022-12-18T14:48:53;21.92;;;12.43;;
10761;SDS011;5433;50.862;4.320;2022-12-18T14:51:20;23.25;;;12.40;;
10761;SDS011;5433;50.862;4.320;2022-12-18T14:53:47;21.38;;;12.73;;
10761;SDS011;5433;50.862;4.320;2022-12-18T14:56:35;22.52;;;12.52;;
10761;SDS011;5433;50.862;4.320;2022-12-18T14:59:01;20.90;;;11.93;;
10761;SDS011;5433;50.862;4.320;2022-12-18T15:01:32;23.95;;;13.25;;
10761;SDS011;5433;50.862;4.320;2022-12-18T15:03:59;22.25;;;12.93;;
10761;SDS011;5433;50.862;4.320;2022-12-18T15:06:30;21.55;;;12.68;;
10761;SDS011;5433;50.862;4.320;2022-12-18T15:08:57;23.73;;;13.23;;
10761;SDS011;5433;50.862;4.320;2022-12-18T15:11:27;21.38;;;12.80;;
10761;SDS011;5433;50.862;4.320;2022-12-18T15:13:54;22.33;;;12.63;;
10761;SDS011;5433;50.862;4.320;2022-12-18T15:16:20;22.70;;;12.65;;
10761;SDS011;5433;50.862;4.320;2022-12-18T15:18:46;22.88;;;13.75;;
10761;SDS011;5433;50.862;4.320;2022-12-18T15:21:16;21.67;;;12.73;;
10761;SDS011;5433;50.862;4.320;2022-12-18T15:26:09;23.30;;;12.68;;
10761;SDS011;5433;50.862;4.320;2022-12-18T15:28:38;23.95;;;13.85;;
10761;SDS011;5433;50.862;4.320;2022-12-18T15:33:31;24.33;;;12.25;;
10761;SDS011;5433;50.862;4.320;2022-12-18T15:36:03;19.98;;;11.07;;
10761;SDS011;5433;50.862;4.320;2022-12-18T15:38:29;25.02;;;12.48;;
10761;SDS011;5433;50.862;4.320;2022-12-18T15:40:56;23.42;;;12.70;;
10761;SDS011;5433;50.862;4.320;2022-12-18T15:43:22;23.85;;;12.90;;
10761;SDS011;5433;50.862;4.320;2022-12-18T15:46:11;21.30;;;11.93;;
10761;SDS011;5433;50.862;4.320;2022-12-18T15:48:39;22.95;;;13.73;;
10761;SDS011;5433;50.862;4.320;2022-12-18T15:51:09;21.75;;;12.68;;
10761;SDS011;5433;50.862;4.320;2022-12-18T15:53:37;23.83;;;13.43;;
10761;SDS011;5433;50.862;4.320;2022-12-18T15:56:04;23.50;;;12.70;;
10761;SDS011;5433;50.862;4.320;2022-12-18T15:58:49;24.73;;;13.10;;
10761;SDS011;5433;50.862;4.320;2022-12-18T16:01:15;23.75;;;13.05;;
10761;SDS011;5433;50.862;4.320;2022-12-18T16:03:44;23.63;;;11.90;;
10761;SDS011;5433;50.862;4.320;2022-12-18T16:06:10;22.60;;;12.85;;
10761;SDS011;5433;50.862;4.320;2022-12-18T16:08:36;23.15;;;12.15;;
10761;SDS011;5433;50.862;4.320;2022-12-18T16:11:02;22.02;;;13.15;;
10761;SDS011;5433;50.862;4.320;2022-12-18T16:13:28;22.83;;;12.43;;
10761;SDS011;5433;50.862;4.320;2022-12-18T16:15:54;22.20;;;12.70;;
10761;SDS011;5433;50.862;4.320;2022-12-18T16:18:20;22.65;;;12.70;;
10761;SDS011;5433;50.862;4.320;2022-12-18T16:20:46;21.95;;;12.45;;
10761;SDS011;5433;50.862;4.320;2022-12-18T16:23:13;20.80;;;12.45;;
10761;SDS011;5433;50.862;4.320;2022-12-18T16:25:39;26.45;;;13.48;;
10761;SDS011;5433;50.862;4.320;2022-12-18T16:28:05;23.58;;;12.85;;
10761;SDS011;5433;50.862;4.320;2022-12-18T16:30:31;22.08;;;12.65;;
10761;SDS011;5433;50.862;4.320;2022-12-18T16:32:57;22.50;;;12.10;;
10761;SDS011;5433;50.862;4.320;2022-12-18T16:35:23;25.52;;;12.48;;
10761;SDS011;5433;50.862;4.320;2022-12-18T16:37:50;22.95;;;12.48;;
10761;SDS011;5433;50.862;4.320;2022-12-18T16:40:16;24.80;;;12.43;;
10761;SDS011;5433;50.862;4.320;2022-12-18T16:42:43;22.27;;;12.75;;
10761;SDS011;5433;50.862;4.320;2022-12-18T16:45:15;21.65;;;12.25;;
10761;SDS011;5433;50.862;4.320;2022-12-18T16:47:41;23.70;;;13.05;;
10761;SDS011;5433;50.862;4.320;2022-12-18T16:50:07;24.00;;;13.05;;
10761;SDS011;5433;50.862;4.320;2022-12-18T16:52:34;21.17;;;12.80;;
10761;SDS011;5433;50.862;4.320;2022-12-18T16:55:00;20.90;;;12.10;;
10761;SDS011;5433;50.862;4.320;2022-12-18T16:57:26;20.73;;;11.68;;
10761;SDS011;5433;50.862;4.320;2022-12-18T16:59:53;21.20;;;11.70;;
10761;SDS011;5433;50.862;4.320;2022-12-18T17:02:20;21.65;;;11.65;;
10761;SDS011;5433;50.862;4.320;2022-12-18T17:04:46;23.58;;;12.90;;
10761;SDS011;5433;50.862;4.320;2022-12-18T17:07:12;20.77;;;11.70;;
10761;SDS011;5433;50.862;4.320;2022-12-18T17:09:39;22.85;;;12.18;;
10761;SDS011;5433;50.862;4.320;2022-12-18T17:12:05;21.50;;;11.85;;
10761;SDS011;5433;50.862;4.320;2022-12-18T17:14:31;20.98;;;11.90;;
10761;SDS011;5433;50.862;4.320;2022-12-18T17:16:58;20.75;;;11.70;;
10761;SDS011;5433;50.862;4.320;2022-12-18T17:19:24;25.42;;;12.05;;
10761;SDS011;5433;50.862;4.320;2022-12-18T17:21:51;21.50;;;12.02;;
10761;SDS011;5433;50.862;4.320;2022-12-18T17:24:17;23.33;;;12.50;;
10761;SDS011;5433;50.862;4.320;2022-12-18T17:26:43;23.60;;;12.68;;
10761;SDS011;5433;50.862;4.320;2022-12-18T17:29:13;24.35;;;12.52;;